sensor_id;sensor_type;location;lat;lon;timestamp;temperature;humidity
27801;DHT22;15181;49.112;11.930;2022-11-12T00:02:09;6.70;99.90
27801;DHT22;15181;49.112;11.930;2022-11-12T00:04:36;6.80;99.90
27801;DHT22;15181;49.112;11.930;2022-11-12T00:07:03;6.80;99.90
27801;DHT22;15181;49.112;11.930;2022-11-12T00:09:30;6.80;99.90
27801;DHT22;15181;49.112;11.930;2022-11-12T00:11:58;6.90;99.90
27801;DHT22;15181;49.112;11.930;2022-11-12T00:14:25;6.90;99.90
27801;DHT22;15181;49.112;11.930;2022-11-12T00:16:52;6.90;99.90
27801;DHT22;15181;49.112;11.930;2022-11-12T00:19:20;6.90;99.90
27801;DHT22;15181;49.112;11.930;2022-11-12T00:21:46;6.90;99.90
27801;DHT22;15181;49.112;11.930;2022-11-12T00:24:14;6.80;99.90
27801;DHT22;15181;49.112;11.930;2022-11-12T00:26:41;6.70;99.90
27801;DHT22;15181;49.112;11.930;2022-11-12T00:29:09;6.60;99.90
27801;DHT22;15181;49.112;11.930;2022-11-12T00:31:37;6.50;99.90
27801;DHT22;15181;49.112;11.930;2022-11-12T00:34:04;6.50;99.90
27801;DHT22;15181;49.112;11.930;2022-11-12T00:36:31;6.30;99.90
27801;DHT22;15181;49.112;11.930;2022-11-12T00:38:58;6.30;99.90
27801;DHT22;15181;49.112;11.930;2022-11-12T00:41:25;6.40;99.90
27801;DHT22;15181;49.112;11.930;2022-11-12T00:43:52;6.50;99.90
27801;DHT22;15181;49.112;11.930;2022-11-12T00:46:21;6.50;99.90
27801;DHT22;15181;49.112;11.930;2022-11-12T00:48:48;6.50;99.90
27801;DHT22;15181;49.112;11.930;2022-11-12T00:51:15;6.60;99.90
27801;DHT22;15181;49.112;11.930;2022-11-12T00:53:42;6.50;99.90
27801;DHT22;15181;49.112;11.930;2022-11-12T00:56:12;6.40;99.90
27801;DHT22;15181;49.112;11.930;2022-11-12T00:58:39;6.40;99.90
27801;DHT22;15181;49.112;11.930;2022-11-12T01:01:08;6.30;99.90
27801;DHT22;15181;49.112;11.930;2022-11-12T01:03:38;6.20;99.90
27801;DHT22;15181;49.112;11.930;2022-11-12T01:06:07;6.20;99.90
27801;DHT22;15181;49.112;11.930;2022-11-12T01:08:36;6.20;99.90
27801;DHT22;15181;49.112;11.930;2022-11-12T01:11:08;6.20;99.90
27801;DHT22;15181;49.112;11.930;2022-11-12T01:13:37;6.20;99.90
27801;DHT22;15181;49.112;11.930;2022-11-12T01:16:05;6.10;99.90
27801;DHT22;15181;49.112;11.930;2022-11-12T01:18:32;6.10;99.90
27801;DHT22;15181;49.112;11.930;2022-11-12T01:21:01;6.20;99.90
27801;DHT22;15181;49.112;11.930;2022-11-12T01:23:31;6.20;99.90
27801;DHT22;15181;49.112;11.930;2022-11-12T01:25:58;6.20;99.90
27801;DHT22;15181;49.112;11.930;2022-11-12T01:28:29;6.30;99.90
27801;DHT22;15181;49.112;11.930;2022-11-12T01:30:56;6.40;99.90
27801;DHT22;15181;49.112;11.930;2022-11-12T01:33:23;6.40;99.90
27801;DHT22;15181;49.112;11.930;2022-11-12T01:35:50;6.50;99.90
27801;DHT22;15181;49.112;11.930;2022-11-12T01:38:19;6.50;99.90
27801;DHT22;15181;49.112;11.930;2022-11-12T01:40:46;6.50;99.90
27801;DHT22;15181;49.112;11.930;2022-11-12T01:43:13;6.50;99.90
27801;DHT22;15181;49.112;11.930;2022-11-12T01:45:43;6.50;99.90
27801;DHT22;15181;49.112;11.930;2022-11-12T01:48:22;6.40;99.90
27801;DHT22;15181;49.112;11.930;2022-11-12T01:50:51;6.30;99.90
27801;DHT22;15181;49.112;11.930;2022-11-12T01:53:21;6.40;99.90
27801;DHT22;15181;49.112;11.930;2022-11-12T01:55:52;6.40;99.90
27801;DHT22;15181;49.112;11.930;2022-11-12T01:58:22;6.40;99.90
27801;DHT22;15181;49.112;11.930;2022-11-12T02:00:51;6.40;99.90
27801;DHT22;15181;49.112;11.930;2022-11-12T02:03:20;6.40;99.90
27801;DHT22;15181;49.112;11.930;2022-11-12T02:05:52;6.30;99.90
27801;DHT22;15181;49.112;11.930;2022-11-12T02:08:24;6.30;99.90
27801;DHT22;15181;49.112;11.930;2022-11-12T02:10:53;6.30;99.90
27801;DHT22;15181;49.112;11.930;2022-11-12T02:13:20;6.20;99.90
27801;DHT22;15181;49.112;11.930;2022-11-12T02:16:06;6.20;99.90
27801;DHT22;15181;49.112;11.930;2022-11-12T02:18:34;6.10;99.90
27801;DHT22;15181;49.112;11.930;2022-11-12T02:21:04;6.10;99.90
27801;DHT22;15181;49.112;11.930;2022-11-12T02:23:34;5.80;99.90
27801;DHT22;15181;49.112;11.930;2022-11-12T02:26:03;5.80;99.90
27801;DHT22;15181;49.112;11.930;2022-11-12T02:28:32;5.90;99.90
27801;DHT22;15181;49.112;11.930;2022-11-12T02:31:00;6.00;99.90
27801;DHT22;15181;49.112;11.930;2022-11-12T02:33:27;6.00;99.90
27801;DHT22;15181;49.112;11.930;2022-11-12T02:35:54;6.10;99.90
27801;DHT22;15181;49.112;11.930;2022-11-12T02:38:21;6.10;99.90
27801;DHT22;15181;49.112;11.930;2022-11-12T02:40:50;6.20;99.90
27801;DHT22;15181;49.112;11.930;2022-11-12T02:43:17;6.00;99.90
27801;DHT22;15181;49.112;11.930;2022-11-12T02:45:44;5.80;99.90
27801;DHT22;15181;49.112;11.930;2022-11-12T02:48:11;5.70;99.90
27801;DHT22;15181;49.112;11.930;2022-11-12T02:50:39;5.60;99.90
27801;DHT22;15181;49.112;11.930;2022-11-12T02:53:06;5.50;99.90
27801;DHT22;15181;49.112;11.930;2022-11-12T02:55:33;5.40;99.90
27801;DHT22;15181;49.112;11.930;2022-11-12T02:58:01;5.30;99.90
27801;DHT22;15181;49.112;11.930;2022-11-12T03:00:28;5.20;99.90
27801;DHT22;15181;49.112;11.930;2022-11-12T03:02:55;5.20;99.90
27801;DHT22;15181;49.112;11.930;2022-11-12T03:05:26;5.30;99.90
27801;DHT22;15181;49.112;11.930;2022-11-12T03:07:56;5.40;99.90
27801;DHT22;15181;49.112;11.930;2022-11-12T03:10:23;5.50;99.90
27801;DHT22;15181;49.112;11.930;2022-11-12T03:12:51;5.60;99.90
27801;DHT22;15181;49.112;11.930;2022-11-12T03:15:19;5.60;99.90
27801;DHT22;15181;49.112;11.930;2022-11-12T03:17:47;5.60;99.90
27801;DHT22;15181;49.112;11.930;2022-11-12T03:20:14;5.70;99.90
27801;DHT22;15181;49.112;11.930;2022-11-12T03:22:41;5.70;99.90
27801;DHT22;15181;49.112;11.930;2022-11-12T03:25:08;5.60;99.90
27801;DHT22;15181;49.112;11.930;2022-11-12T03:27:36;5.60;99.90
27801;DHT22;15181;49.112;11.930;2022-11-12T03:30:03;5.50;99.90
27801;DHT22;15181;49.112;11.930;2022-11-12T03:32:32;5.30;99.90
27801;DHT22;15181;49.112;11.930;2022-11-12T03:34:59;5.30;99.90
27801;DHT22;15181;49.112;11.930;2022-11-12T03:37:28;5.30;99.90
27801;DHT22;15181;49.112;11.930;2022-11-12T03:39:55;5.50;99.90
27801;DHT22;15181;49.112;11.930;2022-11-12T03:42:22;5.50;99.90
27801;DHT22;15181;49.112;11.930;2022-11-12T03:44:50;5.50;99.90
27801;DHT22;15181;49.112;11.930;2022-11-12T03:47:17;5.60;99.90
27801;DHT22;15181;49.112;11.930;2022-11-12T03:49:45;5.50;99.90
27801;DHT22;15181;49.112;11.930;2022-11-12T03:52:12;5.60;99.90
27801;DHT22;15181;49.112;11.930;2022-11-12T03:54:39;5.60;99.90
27801;DHT22;15181;49.112;11.930;2022-11-12T03:57:06;5.70;99.90
27801;DHT22;15181;49.112;11.930;2022-11-12T03:59:33;5.70;99.90
27801;DHT22;15181;49.112;11.930;2022-11-12T04:02:01;5.80;99.90
27801;DHT22;15181;49.112;11.930;2022-11-12T04:04:28;5.90;99.90
27801;DHT22;15181;49.112;11.930;2022-11-12T04:07:16;5.90;99.90
27801;DHT22;15181;49.112;11.930;2022-11-12T04:10:00;5.90;99.90
27801;DHT22;15181;49.112;11.930;2022-11-12T04:12:28;5.80;99.90
27801;DHT22;15181;49.112;11.930;2022-11-12T04:15:11;5.80;99.90
27801;DHT22;15181;49.112;11.930;2022-11-12T04:17:38;5.90;99.90
27801;DHT22;15181;49.112;11.930;2022-11-12T04:20:23;5.90;99.90
27801;DHT22;15181;49.112;11.930;2022-11-12T04:23:09;5.90;99.90
27801;DHT22;15181;49.112;11.930;2022-11-12T04:25:36;5.80;99.90
27801;DHT22;15181;49.112;11.930;2022-11-12T04:28:25;5.70;99.90
27801;DHT22;15181;49.112;11.930;2022-11-12T04:30:53;5.60;99.90
27801;DHT22;15181;49.112;11.930;2022-11-12T04:33:18;5.60;99.90
27801;DHT22;15181;49.112;11.930;2022-11-12T04:35:46;5.50;99.90
27801;DHT22;15181;49.112;11.930;2022-11-12T04:38:14;5.40;99.90
27801;DHT22;15181;49.112;11.930;2022-11-12T04:40:41;5.40;99.90
27801;DHT22;15181;49.112;11.930;2022-11-12T04:43:26;5.40;99.90
27801;DHT22;15181;49.112;11.930;2022-11-12T04:46:10;5.50;99.90
27801;DHT22;15181;49.112;11.930;2022-11-12T04:48:37;5.40;99.90
27801;DHT22;15181;49.112;11.930;2022-11-12T04:51:05;5.40;99.90
27801;DHT22;15181;49.112;11.930;2022-11-12T04:53:54;5.30;99.90
27801;DHT22;15181;49.112;11.930;2022-11-12T04:56:21;5.30;99.90
27801;DHT22;15181;49.112;11.930;2022-11-12T04:58:48;5.20;99.90
27801;DHT22;15181;49.112;11.930;2022-11-12T05:01:15;5.20;99.90
27801;DHT22;15181;49.112;11.930;2022-11-12T05:03:42;5.20;99.90
27801;DHT22;15181;49.112;11.930;2022-11-12T05:06:09;5.10;99.90
27801;DHT22;15181;49.112;11.930;2022-11-12T05:08:50;5.10;99.90
27801;DHT22;15181;49.112;11.930;2022-11-12T05:11:19;5.20;99.90
27801;DHT22;15181;49.112;11.930;2022-11-12T05:13:46;5.10;99.90
27801;DHT22;15181;49.112;11.930;2022-11-12T05:16:14;5.00;99.90
27801;DHT22;15181;49.112;11.930;2022-11-12T05:18:40;4.90;99.90
27801;DHT22;15181;49.112;11.930;2022-11-12T05:21:07;5.00;99.90
27801;DHT22;15181;49.112;11.930;2022-11-12T05:23:48;5.10;99.90
27801;DHT22;15181;49.112;11.930;2022-11-12T05:26:15;5.20;99.90
27801;DHT22;15181;49.112;11.930;2022-11-12T05:28:44;5.10;99.90
27801;DHT22;15181;49.112;11.930;2022-11-12T05:31:11;5.10;99.90
27801;DHT22;15181;49.112;11.930;2022-11-12T05:33:38;5.20;99.90
27801;DHT22;15181;49.112;11.930;2022-11-12T05:36:05;5.20;99.90
27801;DHT22;15181;49.112;11.930;2022-11-12T05:38:33;5.20;99.90
27801;DHT22;15181;49.112;11.930;2022-11-12T05:41:00;5.30;99.90
27801;DHT22;15181;49.112;11.930;2022-11-12T05:43:27;5.40;99.90
27801;DHT22;15181;49.112;11.930;2022-11-12T05:45:55;5.40;99.90
27801;DHT22;15181;49.112;11.930;2022-11-12T05:48:24;5.50;99.90
27801;DHT22;15181;49.112;11.930;2022-11-12T05:50:51;5.50;99.90
27801;DHT22;15181;49.112;11.930;2022-11-12T05:53:18;5.50;99.90
27801;DHT22;15181;49.112;11.930;2022-11-12T05:55:45;5.20;99.90
27801;DHT22;15181;49.112;11.930;2022-11-12T05:58:12;5.20;99.90
27801;DHT22;15181;49.112;11.930;2022-11-12T06:00:39;5.20;99.90
27801;DHT22;15181;49.112;11.930;2022-11-12T06:03:09;5.10;99.90
27801;DHT22;15181;49.112;11.930;2022-11-12T06:05:37;5.00;99.90
27801;DHT22;15181;49.112;11.930;2022-11-12T06:08:05;5.00;99.90
27801;DHT22;15181;49.112;11.930;2022-11-12T06:10:32;4.90;99.90
27801;DHT22;15181;49.112;11.930;2022-11-12T06:12:59;4.90;99.90
27801;DHT22;15181;49.112;11.930;2022-11-12T06:15:27;4.90;99.90
27801;DHT22;15181;49.112;11.930;2022-11-12T06:17:54;4.80;99.90
27801;DHT22;15181;49.112;11.930;2022-11-12T06:20:23;4.70;99.90
27801;DHT22;15181;49.112;11.930;2022-11-12T06:22:50;4.70;99.90
27801;DHT22;15181;49.112;11.930;2022-11-12T06:25:18;4.70;99.90
27801;DHT22;15181;49.112;11.930;2022-11-12T06:27:45;4.80;99.90
27801;DHT22;15181;49.112;11.930;2022-11-12T06:30:12;4.60;99.90
27801;DHT22;15181;49.112;11.930;2022-11-12T06:32:39;4.60;99.90
27801;DHT22;15181;49.112;11.930;2022-11-12T06:35:07;4.50;99.90
27801;DHT22;15181;49.112;11.930;2022-11-12T06:37:36;4.50;99.90
27801;DHT22;15181;49.112;11.930;2022-11-12T06:40:04;4.50;99.90
27801;DHT22;15181;49.112;11.930;2022-11-12T06:42:31;4.50;99.90
27801;DHT22;15181;49.112;11.930;2022-11-12T06:44:58;4.50;99.90
27801;DHT22;15181;49.112;11.930;2022-11-12T06:47:25;4.60;99.90
27801;DHT22;15181;49.112;11.930;2022-11-12T06:49:52;4.50;99.90
27801;DHT22;15181;49.112;11.930;2022-11-12T06:52:20;4.40;99.90
27801;DHT22;15181;49.112;11.930;2022-11-12T06:54:48;4.30;99.90
27801;DHT22;15181;49.112;11.930;2022-11-12T06:57:15;4.40;99.90
27801;DHT22;15181;49.112;11.930;2022-11-12T06:59:42;4.30;99.90
27801;DHT22;15181;49.112;11.930;2022-11-12T07:02:10;4.30;99.90
27801;DHT22;15181;49.112;11.930;2022-11-12T07:04:38;4.30;99.90
27801;DHT22;15181;49.112;11.930;2022-11-12T07:07:05;4.30;99.90
27801;DHT22;15181;49.112;11.930;2022-11-12T07:09:33;4.30;99.90
27801;DHT22;15181;49.112;11.930;2022-11-12T07:12:01;4.20;99.90
27801;DHT22;15181;49.112;11.930;2022-11-12T07:14:29;4.20;99.90
27801;DHT22;15181;49.112;11.930;2022-11-12T07:16:56;4.30;99.90
27801;DHT22;15181;49.112;11.930;2022-11-12T07:19:23;4.20;99.90
27801;DHT22;15181;49.112;11.930;2022-11-12T07:21:50;4.30;99.90
27801;DHT22;15181;49.112;11.930;2022-11-12T07:24:17;4.30;99.90
27801;DHT22;15181;49.112;11.930;2022-11-12T07:26:44;4.20;99.90
27801;DHT22;15181;49.112;11.930;2022-11-12T07:29:12;4.30;99.90
27801;DHT22;15181;49.112;11.930;2022-11-12T07:31:39;4.40;99.90
27801;DHT22;15181;49.112;11.930;2022-11-12T07:34:06;4.30;99.90
27801;DHT22;15181;49.112;11.930;2022-11-12T07:36:34;4.30;99.90
27801;DHT22;15181;49.112;11.930;2022-11-12T07:39:00;4.30;99.90
27801;DHT22;15181;49.112;11.930;2022-11-12T07:41:28;4.30;99.90
27801;DHT22;15181;49.112;11.930;2022-11-12T07:43:55;4.20;99.90
27801;DHT22;15181;49.112;11.930;2022-11-12T07:46:25;4.30;99.90
27801;DHT22;15181;49.112;11.930;2022-11-12T07:48:53;4.30;99.90
27801;DHT22;15181;49.112;11.930;2022-11-12T07:51:23;4.20;99.90
27801;DHT22;15181;49.112;11.930;2022-11-12T07:53:52;4.20;99.90
27801;DHT22;15181;49.112;11.930;2022-11-12T07:56:23;4.10;99.90
27801;DHT22;15181;49.112;11.930;2022-11-12T07:58:51;4.10;99.90
27801;DHT22;15181;49.112;11.930;2022-11-12T08:01:24;4.40;99.90
27801;DHT22;15181;49.112;11.930;2022-11-12T08:03:54;4.50;99.90
27801;DHT22;15181;49.112;11.930;2022-11-12T08:06:21;4.60;99.90
27801;DHT22;15181;49.112;11.930;2022-11-12T08:08:52;4.70;99.90
27801;DHT22;15181;49.112;11.930;2022-11-12T08:11:20;4.60;99.90
27801;DHT22;15181;49.112;11.930;2022-11-12T08:13:49;4.50;99.90
27801;DHT22;15181;49.112;11.930;2022-11-12T08:16:16;4.50;99.90
27801;DHT22;15181;49.112;11.930;2022-11-12T08:18:46;4.50;99.90
27801;DHT22;15181;49.112;11.930;2022-11-12T08:21:14;4.50;99.90
27801;DHT22;15181;49.112;11.930;2022-11-12T08:23:42;4.70;99.90
27801;DHT22;15181;49.112;11.930;2022-11-12T08:26:11;4.80;99.90
27801;DHT22;15181;49.112;11.930;2022-11-12T08:28:39;4.90;99.90
27801;DHT22;15181;49.112;11.930;2022-11-12T08:31:08;5.10;99.90
27801;DHT22;15181;49.112;11.930;2022-11-12T08:33:35;5.20;99.90
27801;DHT22;15181;49.112;11.930;2022-11-12T08:36:05;5.30;99.90
27801;DHT22;15181;49.112;11.930;2022-11-12T08:38:32;5.30;99.90
27801;DHT22;15181;49.112;11.930;2022-11-12T08:41:00;5.30;99.90
27801;DHT22;15181;49.112;11.930;2022-11-12T08:43:27;5.40;99.90
27801;DHT22;15181;49.112;11.930;2022-11-12T08:45:56;5.40;99.90
27801;DHT22;15181;49.112;11.930;2022-11-12T08:48:24;5.40;99.90
27801;DHT22;15181;49.112;11.930;2022-11-12T08:50:52;5.20;99.90
27801;DHT22;15181;49.112;11.930;2022-11-12T08:53:22;5.20;99.90
27801;DHT22;15181;49.112;11.930;2022-11-12T08:55:52;5.30;99.90
27801;DHT22;15181;49.112;11.930;2022-11-12T08:58:19;5.40;99.90
27801;DHT22;15181;49.112;11.930;2022-11-12T09:00:47;5.40;99.90
27801;DHT22;15181;49.112;11.930;2022-11-12T09:03:17;5.30;99.90
27801;DHT22;15181;49.112;11.930;2022-11-12T09:05:44;5.40;99.90
27801;DHT22;15181;49.112;11.930;2022-11-12T09:08:14;5.50;99.90
27801;DHT22;15181;49.112;11.930;2022-11-12T09:10:44;5.50;99.90
27801;DHT22;15181;49.112;11.930;2022-11-12T09:13:11;5.40;99.90
27801;DHT22;15181;49.112;11.930;2022-11-12T09:15:40;5.40;99.90
27801;DHT22;15181;49.112;11.930;2022-11-12T09:18:10;5.50;99.90
27801;DHT22;15181;49.112;11.930;2022-11-12T09:20:38;5.50;99.90
27801;DHT22;15181;49.112;11.930;2022-11-12T09:23:09;5.40;99.90
27801;DHT22;15181;49.112;11.930;2022-11-12T09:25:38;5.40;99.90
27801;DHT22;15181;49.112;11.930;2022-11-12T09:28:08;5.50;99.90
27801;DHT22;15181;49.112;11.930;2022-11-12T09:30:36;5.70;99.90
27801;DHT22;15181;49.112;11.930;2022-11-12T09:33:04;5.80;99.90
27801;DHT22;15181;49.112;11.930;2022-11-12T09:35:31;5.80;99.90
27801;DHT22;15181;49.112;11.930;2022-11-12T09:37:59;5.70;99.90
27801;DHT22;15181;49.112;11.930;2022-11-12T09:40:36;5.80;99.90
27801;DHT22;15181;49.112;11.930;2022-11-12T09:43:15;5.90;99.90
27801;DHT22;15181;49.112;11.930;2022-11-12T09:45:45;5.90;99.90
27801;DHT22;15181;49.112;11.930;2022-11-12T09:48:17;6.10;99.90
27801;DHT22;15181;49.112;11.930;2022-11-12T09:50:52;6.00;99.90
27801;DHT22;15181;49.112;11.930;2022-11-12T09:53:27;6.00;99.90
27801;DHT22;15181;49.112;11.930;2022-11-12T09:55:56;6.10;99.90
27801;DHT22;15181;49.112;11.930;2022-11-12T09:58:25;6.30;99.90
27801;DHT22;15181;49.112;11.930;2022-11-12T10:00:55;6.40;99.90
27801;DHT22;15181;49.112;11.930;2022-11-12T10:03:33;6.50;99.90
27801;DHT22;15181;49.112;11.930;2022-11-12T10:06:08;6.60;99.90
27801;DHT22;15181;49.112;11.930;2022-11-12T10:08:45;6.70;99.90
27801;DHT22;15181;49.112;11.930;2022-11-12T10:11:30;6.80;99.90
27801;DHT22;15181;49.112;11.930;2022-11-12T10:14:36;6.90;99.90
27801;DHT22;15181;49.112;11.930;2022-11-12T10:17:14;7.00;99.90
27801;DHT22;15181;49.112;11.930;2022-11-12T10:20:00;7.10;99.90
27801;DHT22;15181;49.112;11.930;2022-11-12T10:22:56;7.20;99.90
27801;DHT22;15181;49.112;11.930;2022-11-12T10:25:24;7.30;99.90
27801;DHT22;15181;49.112;11.930;2022-11-12T10:27:54;7.40;99.90
27801;DHT22;15181;49.112;11.930;2022-11-12T10:30:24;7.40;99.90
27801;DHT22;15181;49.112;11.930;2022-11-12T10:32:52;7.50;99.90
27801;DHT22;15181;49.112;11.930;2022-11-12T10:35:21;7.60;99.90
27801;DHT22;15181;49.112;11.930;2022-11-12T10:37:53;7.50;99.90
27801;DHT22;15181;49.112;11.930;2022-11-12T10:40:28;7.60;99.90
27801;DHT22;15181;49.112;11.930;2022-11-12T10:42:57;7.70;99.90
27801;DHT22;15181;49.112;11.930;2022-11-12T10:45:26;7.70;99.90
27801;DHT22;15181;49.112;11.930;2022-11-12T10:47:53;7.80;99.90
27801;DHT22;15181;49.112;11.930;2022-11-12T10:50:21;7.80;99.90
27801;DHT22;15181;49.112;11.930;2022-11-12T10:52:56;7.90;99.90
27801;DHT22;15181;49.112;11.930;2022-11-12T10:55:24;7.90;99.90
27801;DHT22;15181;49.112;11.930;2022-11-12T10:58:15;8.00;99.90
27801;DHT22;15181;49.112;11.930;2022-11-12T11:01:13;8.00;99.90
27801;DHT22;15181;49.112;11.930;2022-11-12T11:03:46;8.00;99.90
27801;DHT22;15181;49.112;11.930;2022-11-12T11:06:21;8.10;99.90
27801;DHT22;15181;49.112;11.930;2022-11-12T11:08:49;8.10;99.90
27801;DHT22;15181;49.112;11.930;2022-11-12T11:11:20;8.10;99.90
27801;DHT22;15181;49.112;11.930;2022-11-12T11:13:52;8.20;99.90
27801;DHT22;15181;49.112;11.930;2022-11-12T11:16:23;8.30;99.90
27801;DHT22;15181;49.112;11.930;2022-11-12T11:18:53;8.20;99.90
27801;DHT22;15181;49.112;11.930;2022-11-12T11:21:53;8.00;99.90
27801;DHT22;15181;49.112;11.930;2022-11-12T11:24:35;7.80;99.90
27801;DHT22;15181;49.112;11.930;2022-11-12T11:27:12;7.90;99.90
27801;DHT22;15181;49.112;11.930;2022-11-12T11:29:51;7.80;99.90
27801;DHT22;15181;49.112;11.930;2022-11-12T11:35:20;8.00;99.90
27801;DHT22;15181;49.112;11.930;2022-11-12T11:38:01;8.10;99.90
27801;DHT22;15181;49.112;11.930;2022-11-12T11:40:35;8.30;99.90
27801;DHT22;15181;49.112;11.930;2022-11-12T11:43:20;8.40;99.90
27801;DHT22;15181;49.112;11.930;2022-11-12T11:46:01;8.50;99.90
27801;DHT22;15181;49.112;11.930;2022-11-12T11:48:44;8.50;99.90
27801;DHT22;15181;49.112;11.930;2022-11-12T11:51:25;8.50;99.90
27801;DHT22;15181;49.112;11.930;2022-11-12T11:54:02;8.50;99.90
27801;DHT22;15181;49.112;11.930;2022-11-12T11:56:35;8.60;99.90
27801;DHT22;15181;49.112;11.930;2022-11-12T11:59:15;8.60;99.90
27801;DHT22;15181;49.112;11.930;2022-11-12T12:01:58;8.60;99.90
27801;DHT22;15181;49.112;11.930;2022-11-12T12:04:41;8.70;99.90
27801;DHT22;15181;49.112;11.930;2022-11-12T12:07:19;8.80;99.90
27801;DHT22;15181;49.112;11.930;2022-11-12T12:09:52;8.90;99.90
27801;DHT22;15181;49.112;11.930;2022-11-12T12:12:31;8.90;99.90
27801;DHT22;15181;49.112;11.930;2022-11-12T12:15:18;8.90;99.90
27801;DHT22;15181;49.112;11.930;2022-11-12T12:17:54;8.90;99.90
27801;DHT22;15181;49.112;11.930;2022-11-12T12:20:34;8.80;99.90
27801;DHT22;15181;49.112;11.930;2022-11-12T12:23:10;8.90;99.90
27801;DHT22;15181;49.112;11.930;2022-11-12T12:25:40;8.80;99.90
27801;DHT22;15181;49.112;11.930;2022-11-12T12:28:23;8.90;99.90
27801;DHT22;15181;49.112;11.930;2022-11-12T12:30:57;8.90;99.90
27801;DHT22;15181;49.112;11.930;2022-11-12T12:33:29;8.90;99.90
27801;DHT22;15181;49.112;11.930;2022-11-12T12:36:02;9.00;99.90
27801;DHT22;15181;49.112;11.930;2022-11-12T12:38:36;9.00;99.90
27801;DHT22;15181;49.112;11.930;2022-11-12T12:41:13;9.00;99.90
27801;DHT22;15181;49.112;11.930;2022-11-12T12:43:45;9.10;99.90
27801;DHT22;15181;49.112;11.930;2022-11-12T12:46:15;9.20;99.90
27801;DHT22;15181;49.112;11.930;2022-11-12T12:48:44;9.20;99.90
27801;DHT22;15181;49.112;11.930;2022-11-12T12:51:14;9.20;99.90
27801;DHT22;15181;49.112;11.930;2022-11-12T12:53:40;9.30;99.90
27801;DHT22;15181;49.112;11.930;2022-11-12T12:56:43;9.30;99.90
27801;DHT22;15181;49.112;11.930;2022-11-12T12:59:22;9.40;99.90
27801;DHT22;15181;49.112;11.930;2022-11-12T13:01:57;9.40;99.90
27801;DHT22;15181;49.112;11.930;2022-11-12T13:04:48;9.50;99.90
27801;DHT22;15181;49.112;11.930;2022-11-12T13:07:19;9.50;99.90
27801;DHT22;15181;49.112;11.930;2022-11-12T13:09:48;9.50;99.90
27801;DHT22;15181;49.112;11.930;2022-11-12T13:12:16;9.50;99.90
27801;DHT22;15181;49.112;11.930;2022-11-12T13:15:08;9.40;99.90
27801;DHT22;15181;49.112;11.930;2022-11-12T13:17:42;9.40;99.90
27801;DHT22;15181;49.112;11.930;2022-11-12T13:20:38;9.40;99.90
27801;DHT22;15181;49.112;11.930;2022-11-12T13:23:44;9.40;99.90
27801;DHT22;15181;49.112;11.930;2022-11-12T13:26:46;9.40;99.90
27801;DHT22;15181;49.112;11.930;2022-11-12T13:29:21;9.30;99.90
27801;DHT22;15181;49.112;11.930;2022-11-12T13:31:49;9.30;99.90
27801;DHT22;15181;49.112;11.930;2022-11-12T13:34:36;9.30;99.90
27801;DHT22;15181;49.112;11.930;2022-11-12T13:37:04;9.30;99.90
27801;DHT22;15181;49.112;11.930;2022-11-12T13:39:34;9.30;99.90
27801;DHT22;15181;49.112;11.930;2022-11-12T13:42:12;9.20;99.90
27801;DHT22;15181;49.112;11.930;2022-11-12T13:45:11;9.20;99.90
27801;DHT22;15181;49.112;11.930;2022-11-12T13:47:39;9.10;99.90
27801;DHT22;15181;49.112;11.930;2022-11-12T13:50:09;9.10;99.90
27801;DHT22;15181;49.112;11.930;2022-11-12T13:52:39;9.00;99.90
27801;DHT22;15181;49.112;11.930;2022-11-12T13:55:13;9.00;99.90
27801;DHT22;15181;49.112;11.930;2022-11-12T13:57:44;9.00;99.90
27801;DHT22;15181;49.112;11.930;2022-11-12T14:00:23;9.00;99.90
27801;DHT22;15181;49.112;11.930;2022-11-12T14:02:53;9.00;99.90
27801;DHT22;15181;49.112;11.930;2022-11-12T14:05:23;9.00;99.90
27801;DHT22;15181;49.112;11.930;2022-11-12T14:08:12;8.90;99.90
27801;DHT22;15181;49.112;11.930;2022-11-12T14:11:03;8.90;99.90
27801;DHT22;15181;49.112;11.930;2022-11-12T14:13:43;8.90;99.90
27801;DHT22;15181;49.112;11.930;2022-11-12T14:16:27;8.90;99.90
27801;DHT22;15181;49.112;11.930;2022-11-12T14:19:28;8.90;99.90
27801;DHT22;15181;49.112;11.930;2022-11-12T14:22:00;8.90;99.90
27801;DHT22;15181;49.112;11.930;2022-11-12T14:24:27;8.90;99.90
27801;DHT22;15181;49.112;11.930;2022-11-12T14:26:56;8.80;99.90
27801;DHT22;15181;49.112;11.930;2022-11-12T14:29:24;8.90;99.90
27801;DHT22;15181;49.112;11.930;2022-11-12T14:31:59;8.80;99.90
27801;DHT22;15181;49.112;11.930;2022-11-12T14:34:29;8.80;99.90
27801;DHT22;15181;49.112;11.930;2022-11-12T14:36:58;8.80;99.90
27801;DHT22;15181;49.112;11.930;2022-11-12T14:39:26;8.70;99.90
27801;DHT22;15181;49.112;11.930;2022-11-12T14:41:57;8.70;99.90
27801;DHT22;15181;49.112;11.930;2022-11-12T14:44:30;8.70;99.90
27801;DHT22;15181;49.112;11.930;2022-11-12T14:46:59;8.70;99.90
27801;DHT22;15181;49.112;11.930;2022-11-12T14:49:32;8.70;99.90
27801;DHT22;15181;49.112;11.930;2022-11-12T14:52:07;8.70;99.90
27801;DHT22;15181;49.112;11.930;2022-11-12T14:54:40;8.60;99.90
27801;DHT22;15181;49.112;11.930;2022-11-12T14:57:18;8.60;99.90
27801;DHT22;15181;49.112;11.930;2022-11-12T14:59:46;8.60;99.90
27801;DHT22;15181;49.112;11.930;2022-11-12T15:02:15;8.50;99.90
27801;DHT22;15181;49.112;11.930;2022-11-12T15:04:51;8.50;99.90
27801;DHT22;15181;49.112;11.930;2022-11-12T15:07:24;8.40;99.90
27801;DHT22;15181;49.112;11.930;2022-11-12T15:09:52;8.30;99.90
27801;DHT22;15181;49.112;11.930;2022-11-12T15:12:22;8.30;99.90
27801;DHT22;15181;49.112;11.930;2022-11-12T15:14:51;8.30;99.90
27801;DHT22;15181;49.112;11.930;2022-11-12T15:17:28;8.40;99.90
27801;DHT22;15181;49.112;11.930;2022-11-12T15:20:03;8.40;99.90
27801;DHT22;15181;49.112;11.930;2022-11-12T15:22:31;8.40;99.90
27801;DHT22;15181;49.112;11.930;2022-11-12T15:25:16;8.30;99.90
27801;DHT22;15181;49.112;11.930;2022-11-12T15:27:47;8.20;99.90
27801;DHT22;15181;49.112;11.930;2022-11-12T15:30:17;8.10;99.90
27801;DHT22;15181;49.112;11.930;2022-11-12T15:32:45;8.10;99.90
27801;DHT22;15181;49.112;11.930;2022-11-12T15:35:37;8.10;99.90
27801;DHT22;15181;49.112;11.930;2022-11-12T15:38:13;8.10;99.90
27801;DHT22;15181;49.112;11.930;2022-11-12T15:40:42;8.10;99.90
27801;DHT22;15181;49.112;11.930;2022-11-12T15:43:14;8.10;99.90
27801;DHT22;15181;49.112;11.930;2022-11-12T15:45:43;8.10;99.90
27801;DHT22;15181;49.112;11.930;2022-11-12T15:48:15;8.20;99.90
27801;DHT22;15181;49.112;11.930;2022-11-12T15:50:43;8.10;99.90
27801;DHT22;15181;49.112;11.930;2022-11-12T15:53:11;8.20;99.90
27801;DHT22;15181;49.112;11.930;2022-11-12T15:55:39;8.10;99.90
27801;DHT22;15181;49.112;11.930;2022-11-12T15:58:15;8.20;99.90
27801;DHT22;15181;49.112;11.930;2022-11-12T16:00:43;8.10;99.90